Time;durP1;ratioP1;P1;durP2;ratioP2;P2;SDS_P1;SDS_P2;PMS_P1;PMS_P2;Temp;Humidity;BMP_temperature;BMP_pressure;BME280_temperature;BME280_humidity;BME280_pressure;Samples;Min_cycle;Max_cycle;Signal;HPM_P1;HPM_P2
2023/01/12 00:02:03;;;;;;;12.27;2.55;;;7.70;99.90;;;;;;5051525;28;20049;-69
2023/01/12 00:04:32;;;;;;;14.35;2.78;;;7.20;99.90;;;;;;5052455;28;20132;-67
2023/01/12 00:06:58;;;;;;;15.70;2.97;;;7.20;99.90;;;;;;5052389;28;20098;-67
2023/01/12 00:09:24;;;;;;;11.18;2.20;;;7.10;99.90;;;;;;5052276;28;20469;-67
2023/01/12 00:11:50;;;;;;;12.90;2.58;;;7.00;99.90;;;;;;5051077;28;20098;-69
2023/01/12 00:14:16;;;;;;;12.50;2.90;;;7.20;99.90;;;;;;5051987;28;20049;-68
2023/01/12 00:16:42;;;;;;;18.27;2.45;;;7.40;99.90;;;;;;5052258;28;20052;-67
2023/01/12 00:19:15;;;;;;;19.63;3.10;;;6.90;99.90;;;;;;5051219;28;20111;-69
2023/01/12 00:21:55;;;;;;;27.95;3.67;;;7.20;99.90;;;;;;5051919;28;20489;-69
2023/01/12 00:24:44;;;;;;;20.58;3.13;;;7.00;99.90;;;;;;5052263;28;20124;-68
2023/01/12 00:27:13;;;;;;;21.67;3.13;;;6.80;99.90;;;;;;5051915;28;20127;-70
2023/01/12 00:29:39;;;;;;;21.50;4.50;;;7.00;99.90;;;;;;5052051;28;20041;-69
2023/01/12 00:32:06;;;;;;;30.27;3.47;;;7.00;99.90;;;;;;5051462;28;20048;-68
2023/01/12 00:34:32;;;;;;;26.55;3.78;;;7.00;99.90;;;;;;5051973;28;20064;-68
2023/01/12 00:37:02;;;;;;;;;;;7.20;99.90;;;;;;5052387;28;20033;-68
2023/01/12 00:39:28;;;;;;;30.40;4.10;;;7.00;99.90;;;;;;5051920;28;19920;-68
2023/01/12 00:47:22;;;;;;;30.20;3.90;;;7.40;99.90;;;;;;5051831;28;20049;-68
2023/01/12 00:49:49;;;;;;;31.45;4.45;;;7.40;99.90;;;;;;5051723;28;20089;-67
2023/01/12 00:52:17;;;;;;;24.20;4.10;;;7.20;99.90;;;;;;5051797;28;20049;-68
2023/01/12 00:54:43;;;;;;;32.10;5.03;;;7.40;99.90;;;;;;5050410;28;20171;-68
2023/01/12 00:57:09;;;;;;;29.23;4.28;;;7.20;99.90;;;;;;5051506;28;20057;-69
2023/01/12 00:59:34;;;;;;;25.42;3.88;;;7.30;99.90;;;;;;5051817;28;20151;-69
2023/01/12 01:02:01;;;;;;;35.53;5.32;;;7.50;99.90;;;;;;5051669;28;20045;-69
2023/01/12 01:04:26;;;;;;;27.65;4.30;;;7.70;99.90;;;;;;5051720;28;20125;-66
2023/01/12 01:06:52;;;;;;;29.20;3.95;;;7.50;99.90;;;;;;5051670;28;20224;-69
2023/01/12 01:09:18;;;;;;;27.45;4.53;;;7.20;99.90;;;;;;5051534;28;20045;-71
2023/01/12 01:11:44;;;;;;;32.95;4.53;;;7.50;99.90;;;;;;5051383;28;20132;-70
2023/01/12 01:14:09;;;;;;;25.35;4.60;;;7.50;99.90;;;;;;5050545;28;20489;-70
2023/01/12 01:16:35;;;;;;;33.50;3.78;;;7.40;99.90;;;;;;5051523;28;20049;-70
2023/01/12 01:19:04;;;;;;;23.30;3.90;;;7.30;99.90;;;;;;5051597;28;20041;-70
2023/01/12 01:21:31;;;;;;;24.77;3.88;;;7.60;99.90;;;;;;5051564;28;20041;-70
2023/01/12 01:23:57;;;;;;;28.30;3.72;;;7.30;99.90;;;;;;5051509;28;20045;-69
2023/01/12 01:26:23;;;;;;;28.15;4.72;;;7.60;99.90;;;;;;5050202;28;20496;-70
2023/01/12 01:28:50;;;;;;;28.80;4.15;;;7.10;99.90;;;;;;5051431;28;20103;-73
2023/01/12 01:31:21;;;;;;;29.88;4.47;;;7.50;99.90;;;;;;5050314;28;20045;-69
2023/01/12 01:33:48;;;;;;;24.90;3.90;;;7.20;99.90;;;;;;5051672;28;20143;-69
2023/01/12 01:36:14;;;;;;;28.70;4.22;;;7.70;99.90;;;;;;5051517;28;20056;-67
2023/01/12 01:38:42;;;;;;;;;;;7.60;99.90;;;;;;5051849;28;20046;-70
2023/01/12 01:41:14;;;;;;;;;;;7.50;99.90;;;;;;5051534;28;19924;-70
2023/01/12 01:44:24;;;;;;;33.53;4.90;;;7.70;99.90;;;;;;5053647;28;19924;-73
2023/01/12 01:46:54;;;;;;;33.78;4.63;;;7.60;99.90;;;;;;5054671;28;20095;-70
2023/01/12 01:49:28;;;;;;;29.15;4.25;;;6.40;99.90;;;;;;5053765;28;20408;-68
2023/01/12 01:52:18;;;;;;;26.45;4.18;;;7.50;99.90;;;;;;5054936;28;20049;-71
2023/01/12 01:54:54;;;;;;;28.48;3.80;;;7.60;99.90;;;;;;5053550;28;20144;-68
2023/01/12 01:57:25;;;;;;;25.38;3.67;;;7.70;99.90;;;;;;5054839;28;20135;-69
2023/01/12 01:59:54;;;;;;;26.23;4.00;;;7.70;99.90;;;;;;5053825;28;20053;-71
2023/01/12 02:02:21;;;;;;;35.85;4.88;;;7.70;99.90;;;;;;5054732;28;20053;-69
2023/01/12 02:04:47;;;;;;;29.73;4.38;;;7.60;99.90;;;;;;5054720;28;20127;-69
2023/01/12 02:07:13;;;;;;;39.50;4.88;;;7.40;99.90;;;;;;5054719;28;20132;-70
2023/01/12 02:09:39;;;;;;;34.90;4.68;;;7.90;99.90;;;;;;5054277;28;20045;-69
2023/01/12 02:17:54;;;;;;;33.28;4.38;;;7.90;99.90;;;;;;5054536;28;20063;-70
2023/01/12 02:20:39;;;;;;;29.98;4.93;;;7.50;99.90;;;;;;5054532;28;20048;-71
2023/01/12 02:23:37;;;;;;;37.28;4.25;;;7.70;99.90;;;;;;5054156;28;20140;-71
2023/01/12 02:26:09;;;;;;;41.50;5.28;;;8.00;99.90;;;;;;5054380;28;20095;-70
2023/01/12 02:29:05;;;;;;;39.83;5.80;;;7.90;99.90;;;;;;5054256;28;20049;-69
2023/01/12 02:32:02;;;;;;;31.33;4.13;;;7.90;99.90;;;;;;5053280;28;20060;-69
2023/01/12 02:35:05;;;;;;;33.55;4.68;;;7.40;99.90;;;;;;5054250;28;20053;-70
2023/01/12 02:37:44;;;;;;;39.65;5.30;;;8.10;99.90;;;;;;5052754;28;20486;-67
2023/01/12 02:40:14;;;;;;;36.38;5.22;;;8.10;99.90;;;;;;5053730;28;20106;-69
2023/01/12 02:42:56;;;;;;;36.95;5.68;;;8.20;99.90;;;;;;5054133;28;20057;-69
2023/01/12 02:45:29;;;;;;;33.55;5.40;;;7.90;99.90;;;;;;5052873;28;20053;-68
2023/01/12 02:48:21;;;;;;;34.45;5.22;;;8.00;99.90;;;;;;5052630;28;20063;-70
2023/01/12 02:50:55;;;;;;;37.97;5.70;;;8.00;99.90;;;;;;5052527;28;20120;-68
2023/01/12 02:53:33;;;;;;;31.90;6.13;;;8.30;99.90;;;;;;5053534;28;20053;-68
2023/01/12 02:56:03;;;;;;;28.45;4.75;;;7.90;99.90;;;;;;5053373;28;20397;-70
2023/01/12 02:58:34;;;;;;;32.97;5.00;;;7.70;99.90;;;;;;5052669;28;20057;-70
2023/01/12 03:01:02;;;;;;;40.33;5.18;;;8.00;99.90;;;;;;5053810;28;20045;-71
2023/01/12 03:03:28;;;;;;;39.53;5.40;;;8.20;99.90;;;;;;5053635;28;20123;-70
2023/01/12 03:05:58;;;;;;;;;;;8.20;99.90;;;;;;5054122;28;20044;-69
2023/01/12 03:08:28;;;;;;;33.00;5.20;;;8.40;99.90;;;;;;5053259;28;19921;-69
2023/01/12 03:10:59;;;;;;;41.38;6.30;;;8.20;99.90;;;;;;5053444;28;20045;-70
2023/01/12 03:13:27;;;;;;;38.90;7.10;;;8.20;99.90;;;;;;5052356;28;20052;-69
2023/01/12 03:15:55;;;;;;;44.25;5.85;;;7.80;99.90;;;;;;5053423;28;20049;-70
2023/01/12 03:18:34;;;;;;;44.00;7.15;;;8.10;99.90;;;;;;5053355;28;20136;-71
2023/01/12 03:21:12;;;;;;;47.65;7.13;;;8.40;99.90;;;;;;5053235;28;20045;-70
2023/01/12 03:23:46;;;;;;;44.00;6.45;;;8.40;99.90;;;;;;5053381;28;20131;-69
2023/01/12 03:26:14;;;;;;;44.63;6.15;;;8.00;99.90;;;;;;5053418;28;20052;-69
2023/01/12 03:28:48;;;;;;;43.95;5.40;;;8.30;99.90;;;;;;5053381;28;20049;-68
2023/01/12 03:31:14;;;;;;;41.20;6.47;;;8.40;99.90;;;;;;5053275;28;20075;-68
2023/01/12 03:33:42;;;;;;;45.45;6.57;;;8.20;99.90;;;;;;5053037;28;20060;-67
2023/01/12 03:36:07;;;;;;;44.38;7.25;;;8.50;99.90;;;;;;5051754;28;20052;-70
2023/01/12 03:38:50;;;;;;;47.70;7.25;;;8.20;99.90;;;;;;5052952;28;20099;-69
2023/01/12 03:41:43;;;;;;;48.03;7.15;;;8.50;99.90;;;;;;5053031;28;20052;-72
2023/01/12 03:44:22;;;;;;;49.63;6.45;;;8.30;99.90;;;;;;5053048;28;20401;-68
2023/01/12 03:46:57;;;;;;;44.30;6.93;;;8.20;99.90;;;;;;5052910;28;20088;-68
2023/01/12 03:49:30;;;;;;;40.63;7.40;;;8.40;99.90;;;;;;5052711;28;20037;-70
2023/01/12 03:51:58;;;;;;;39.75;6.20;;;8.50;99.90;;;;;;5052520;28;20041;-70
2023/01/12 03:54:26;;;;;;;37.22;5.38;;;8.40;99.90;;;;;;5052663;28;20102;-68
2023/01/12 03:56:53;;;;;;;28.65;5.13;;;8.20;99.90;;;;;;5052701;28;20441;-67
2023/01/12 03:59:19;;;;;;;23.60;4.50;;;8.40;99.90;;;;;;5052649;28;20049;-67
2023/01/12 04:01:47;;;;;;;25.45;4.50;;;8.60;99.90;;;;;;5052611;28;20041;-66
2023/01/12 04:04:13;;;;;;;24.75;4.93;;;8.10;99.90;;;;;;5052528;28;20408;-68
2023/01/12 04:06:39;;;;;;;37.25;5.45;;;8.80;99.90;;;;;;5051403;28;20128;-68
2023/01/12 04:09:05;;;;;;;38.65;5.32;;;8.60;99.90;;;;;;5052424;28;20119;-68
2023/01/12 04:14:15;;;;;;;37.80;5.50;;;8.40;99.90;;;;;;5052436;28;20049;-68
2023/01/12 04:16:41;;;;;;;43.38;6.90;;;8.60;99.90;;;;;;5052371;28;20055;-69
2023/01/12 04:19:06;;;;;;;31.55;5.38;;;8.50;99.90;;;;;;5052091;28;20469;-69
2023/01/12 04:24:16;;;;;;;36.33;5.03;;;8.30;99.90;;;;;;5051179;28;20102;-69
2023/01/12 04:26:42;;;;;;;31.35;5.03;;;8.30;99.90;;;;;;5051045;28;20040;-68
2023/01/12 04:29:08;;;;;;;32.70;5.20;;;8.40;99.90;;;;;;5050879;28;20473;-68
2023/01/12 04:31:33;;;;;;;40.58;6.15;;;8.20;99.90;;;;;;5052190;28;20088;-67
2023/01/12 04:33:59;;;;;;;31.08;5.90;;;8.30;99.90;;;;;;5050413;28;20136;-67
2023/01/12 04:36:25;;;;;;;31.50;5.30;;;8.70;99.90;;;;;;5051789;28;20060;-67
2023/01/12 04:38:50;;;;;;;30.33;5.50;;;8.50;99.90;;;;;;5052098;28;20124;-65
2023/01/12 04:41:16;;;;;;;26.65;4.40;;;;;;;;;;5052372;28;20049;-66
2023/01/12 04:43:42;;;;;;;14.88;3.10;;;8.40;99.90;;;;;;5050648;28;20098;-67
2023/01/12 04:46:09;;;;;;;23.73;3.92;;;8.30;99.90;;;;;;5052021;28;20044;-67
2023/01/12 04:48:37;;;;;;;21.20;3.97;;;8.30;99.90;;;;;;5051643;28;20057;-68
2023/01/12 04:51:04;;;;;;;24.52;4.18;;;8.40;99.90;;;;;;5051891;28;20048;-67
2023/01/12 04:53:29;;;;;;;26.08;3.28;;;8.30;99.90;;;;;;5051953;28;20044;-68
2023/01/12 04:55:55;;;;;;;22.67;3.45;;;8.20;99.90;;;;;;5051949;28;20054;-67
2023/01/12 04:58:21;;;;;;;23.65;3.50;;;8.20;99.90;;;;;;5051972;28;20048;-68
2023/01/12 05:00:47;;;;;;;23.27;3.58;;;8.20;99.90;;;;;;5051867;28;20045;-68
2023/01/12 05:03:14;;;;;;;17.40;3.00;;;8.30;99.90;;;;;;5051543;28;20445;-67
2023/01/12 05:05:40;;;;;;;23.77;3.50;;;7.90;99.90;;;;;;5051802;28;20044;-67
2023/01/12 05:10:52;;;;;;;16.75;2.70;;;8.10;99.90;;;;;;5051775;28;20084;-67
2023/01/12 05:13:18;;;;;;;17.98;2.90;;;8.30;99.90;;;;;;5051758;28;20049;-68
2023/01/12 05:15:44;;;;;;;22.23;3.53;;;8.00;99.90;;;;;;5051807;28;20053;-67
2023/01/12 05:18:09;;;;;;;19.40;3.30;;;8.00;99.90;;;;;;5051818;28;20052;-67
2023/01/12 05:20:35;;;;;;;16.73;2.65;;;8.20;99.90;;;;;;5055776;28;20154;-67
2023/01/12 05:23:01;;;;;;;20.10;3.22;;;8.30;99.90;;;;;;5055025;28;20053;-68
2023/01/12 05:25:28;;;;;;;14.60;3.15;;;8.30;99.90;;;;;;5055795;28;20056;-69
2023/01/12 05:27:57;;;;;;;11.15;2.75;;;7.80;99.90;;;;;;5055320;28;20509;-67
2023/01/12 05:30:24;;;;;;;15.35;2.83;;;8.20;99.90;;;;;;5055445;28;20049;-68
2023/01/12 05:32:49;;;;;;;12.40;2.88;;;8.30;99.90;;;;;;5054980;28;20482;-68
2023/01/12 05:35:15;;;;;;;15.80;2.80;;;8.10;99.90;;;;;;5055497;28;20057;-67
2023/01/12 05:37:41;;;;;;;11.90;3.03;;;8.20;99.90;;;;;;5055341;28;20049;-68
2023/01/12 05:40:07;;;;;;;11.70;2.47;;;8.30;99.90;;;;;;5055394;28;20037;-68
2023/01/12 05:45:17;;;;;;;10.93;2.47;;;8.30;99.90;;;;;;5055286;28;20052;-69
2023/01/12 05:47:43;;;;;;;8.75;2.50;;;8.40;99.90;;;;;;5054910;28;20076;-68
2023/01/12 05:50:09;;;;;;;12.43;3.25;;;8.20;99.90;;;;;;5055123;28;20091;-66
2023/01/12 05:52:34;;;;;;;;;;;8.30;99.90;;;;;;5055497;28;20482;-67
2023/01/12 05:55:00;;;;;;;7.10;2.53;;;8.40;99.90;;;;;;5055090;28;19927;-67
2023/01/12 05:57:29;;;;;;;5.93;2.38;;;8.50;99.90;;;;;;5053739;28;20091;-67
2023/01/12 05:59:55;;;;;;;6.88;2.58;;;8.20;99.90;;;;;;5054945;28;20067;-66
2023/01/12 06:02:21;;;;;;;5.43;2.30;;;8.10;99.90;;;;;;5054667;28;20447;-66
2023/01/12 06:04:47;;;;;;;8.45;2.97;;;8.40;99.90;;;;;;5054985;28;20041;-67
2023/01/12 06:07:14;;;;;;;7.25;2.58;;;8.40;99.90;;;;;;5054850;28;20110;-68
2023/01/12 06:09:41;;;;;;;5.28;2.58;;;8.60;99.90;;;;;;5054387;28;20523;-67
2023/01/12 06:14:52;;;;;;;5.88;2.88;;;8.40;99.90;;;;;;5054749;28;20300;-68
2023/01/12 06:17:19;;;;;;;3.90;2.20;;;8.40;99.90;;;;;;5053362;28;20056;-67
2023/01/12 06:19:46;;;;;;;;;;;8.40;99.90;;;;;;5055030;28;20041;-67
2023/01/12 06:22:12;;;;;;;6.22;2.38;;;8.30;99.90;;;;;;5054587;28;20283;-66
2023/01/12 06:24:38;;;;;;;8.52;2.67;;;8.60;99.90;;;;;;5054527;28;20131;-68
2023/01/12 06:27:09;;;;;;;3.67;2.40;;;8.40;99.90;;;;;;5054525;28;20102;-66
2023/01/12 06:29:35;;;;;;;4.05;2.40;;;8.40;99.90;;;;;;5052007;28;20049;-65
2023/01/12 06:32:01;;;;;;;5.57;2.40;;;8.60;99.90;;;;;;5054365;28;20048;-67
2023/01/12 06:34:27;;;;;;;8.13;2.35;;;8.50;99.90;;;;;;5054344;28;20059;-66
2023/01/12 06:36:52;;;;;;;6.18;2.67;;;8.70;99.90;;;;;;5054335;28;20136;-65
2023/01/12 06:39:18;;;;;;;6.65;2.72;;;8.60;99.90;;;;;;5054236;28;20460;-66
2023/01/12 06:44:28;;;;;;;10.13;4.15;;;8.80;99.90;;;;;;5053944;28;20092;-66
2023/01/12 06:46:54;;;;;;;9.32;3.42;;;8.80;99.90;;;;;;5054159;28;20088;-65
2023/01/12 06:49:19;;;;;;;12.57;4.25;;;9.30;99.90;;;;;;5053947;28;20041;-64
2023/01/12 06:51:50;;;;;;;11.40;3.47;;;9.20;99.90;;;;;;5054032;28;20048;-66
2023/01/12 06:54:15;;;;;;;13.38;3.50;;;9.00;99.90;;;;;;5054044;28;20091;-66
2023/01/12 06:56:41;;;;;;;13.43;3.30;;;9.10;99.90;;;;;;5053835;28;20049;-65
2023/01/12 06:59:08;;;;;;;15.93;3.40;;;9.20;99.90;;;;;;5052340;28;20654;-65
2023/01/12 07:01:34;;;;;;;21.90;4.00;;;9.00;99.90;;;;;;5053670;28;20128;-66
2023/01/12 07:04:00;;;;;;;25.83;4.25;;;9.10;99.90;;;;;;5053705;28;20132;-66
2023/01/12 07:06:25;;;;;;;38.88;4.82;;;9.50;99.90;;;;;;5053641;28;20053;-67
2023/01/12 07:08:51;;;;;;;31.77;5.15;;;9.40;99.90;;;;;;5053522;28;20052;-65
2023/01/12 07:11:17;;;;;;;34.85;4.90;;;9.70;99.90;;;;;;5052329;28;20128;-65
2023/01/12 07:13:42;;;;;;;35.05;5.05;;;9.40;99.90;;;;;;5052866;28;20052;-67
2023/01/12 07:16:08;;;;;;;36.17;4.90;;;9.60;99.90;;;;;;5053626;28;20064;-71
2023/01/12 07:18:34;;;;;;;48.33;6.68;;;10.00;99.90;;;;;;5053802;28;20127;-68
2023/01/12 07:21:06;;;;;;;35.58;5.40;;;9.80;99.90;;;;;;5053434;28;20044;-65
2023/01/12 07:23:32;;;;;;;25.08;4.10;;;9.90;99.90;;;;;;5053315;28;20049;-66
2023/01/12 07:25:58;;;;;;;40.17;5.47;;;10.00;99.90;;;;;;5053205;28;20052;-66
2023/01/12 07:28:24;;;;;;;31.23;5.00;;;9.60;99.90;;;;;;5051712;28;20052;-68
2023/01/12 07:30:49;;;;;;;24.38;4.32;;;10.10;99.90;;;;;;5051904;28;20052;-67
2023/01/12 07:33:15;;;;;;;23.33;4.03;;;10.00;99.90;;;;;;5052911;28;20060;-66
2023/01/12 07:35:42;;;;;;;31.98;4.18;;;10.00;99.90;;;;;;5051790;28;20067;-66
2023/01/12 07:38:08;;;;;;;29.27;4.18;;;10.20;99.90;;;;;;5053009;28;20045;-65
2023/01/12 07:40:34;;;;;;;26.85;4.53;;;10.20;99.90;;;;;;5052898;28;20049;-66
2023/01/12 07:43:01;;;;;;;21.23;3.38;;;10.20;99.90;;;;;;5052628;28;20041;-68
2023/01/12 07:45:29;;;;;;;24.50;4.40;;;9.90;99.90;;;;;;5052833;28;20056;-65
2023/01/12 07:47:55;;;;;;;34.10;4.28;;;10.30;99.90;;;;;;5052808;28;20059;-66
2023/01/12 07:50:22;;;;;;;31.65;3.78;;;10.50;99.90;;;;;;5052708;28;20124;-66
2023/01/12 07:52:48;;;;;;;25.20;4.15;;;10.20;99.90;;;;;;5052756;28;20053;-66
2023/01/12 07:55:18;;;;;;;23.63;3.67;;;9.90;99.90;;;;;;5052725;28;20103;-68
2023/01/12 07:57:57;;;;;;;25.13;3.85;;;10.10;99.90;;;;;;5051175;28;20057;-67
2023/01/12 08:00:23;;;;;;;23.25;4.75;;;10.00;99.90;;;;;;5052565;28;20124;-66
2023/01/12 08:03:06;;;;;;;28.50;4.30;;;10.40;99.90;;;;;;5052604;28;20048;-66
2023/01/12 08:05:33;;;;;;;24.70;5.05;;;10.20;99.90;;;;;;5052586;28;20055;-65
2023/01/12 08:07:59;;;;;;;30.20;4.78;;;10.40;99.90;;;;;;5052422;28;20052;-65
2023/01/12 08:10:25;;;;;;;29.27;3.90;;;10.30;99.90;;;;;;5052312;28;20393;-67
2023/01/12 08:12:51;;;;;;;34.83;4.32;;;10.50;99.90;;;;;;5052128;28;20045;-65
2023/01/12 08:15:17;;;;;;;30.83;4.15;;;10.40;99.90;;;;;;5052345;28;20064;-66
2023/01/12 08:17:47;;;;;;;21.95;4.15;;;10.50;99.90;;;;;;5052342;28;20548;-66
2023/01/12 08:20:20;;;;;;;31.25;4.25;;;10.50;99.90;;;;;;5052257;28;20053;-66
2023/01/12 08:22:48;;;;;;;18.88;3.40;;;10.60;99.90;;;;;;5052247;28;20071;-66
2023/01/12 08:25:29;;;;;;;23.83;4.03;;;10.00;99.90;;;;;;5052127;28;20493;-67
2023/01/12 08:27:59;;;;;;;26.70;3.90;;;10.50;99.90;;;;;;5052173;28;20520;-66
2023/01/12 08:30:26;;;;;;;21.83;4.30;;;10.40;99.90;;;;;;5052019;28;20041;-68
2023/01/12 08:32:56;;;;;;;26.13;3.50;;;10.40;99.90;;;;;;5051863;28;20060;-66
2023/01/12 08:35:26;;;;;;;28.15;4.20;;;10.70;99.90;;;;;;5052068;28;20048;-67
2023/01/12 08:37:53;;;;;;;28.10;3.75;;;10.00;99.90;;;;;;5052007;28;20136;-65
2023/01/12 08:40:18;;;;;;;25.00;4.53;;;10.60;99.90;;;;;;5051709;28;20060;-65
2023/01/12 08:42:44;;;;;;;29.75;4.30;;;10.20;99.90;;;;;;5051953;28;20076;-68
2023/01/12 08:45:10;;;;;;;23.40;4.60;;;10.40;99.90;;;;;;5052064;28;20374;-66
2023/01/12 08:47:36;;;;;;;38.35;4.65;;;10.40;99.90;;;;;;5051916;28;20053;-65
2023/01/12 08:50:02;;;;;;;;;;;10.40;99.90;;;;;;5052169;28;20052;-64
2023/01/12 08:52:28;;;;;;;27.58;4.82;;;10.30;99.90;;;;;;5051324;28;19944;-66
2023/01/12 08:54:55;;;;;;;22.40;3.72;;;10.40;99.90;;;;;;5051674;28;20143;-66
2023/01/12 08:57:21;;;;;;;19.13;3.45;;;10.60;99.90;;;;;;5051831;28;20102;-66
2023/01/12 08:59:46;;;;;;;22.73;3.72;;;10.40;99.90;;;;;;5051784;28;20041;-67
2023/01/12 09:02:14;;;;;;;29.65;4.15;;;10.60;99.90;;;;;;5051775;28;20155;-66
2023/01/12 09:04:40;;;;;;;23.48;3.20;;;10.40;99.90;;;;;;5051755;28;20111;-71
2023/01/12 09:07:06;;;;;;;;;;;10.80;99.90;;;;;;5051916;28;20041;-68
2023/01/12 09:09:32;;;;;;;17.40;3.22;;;10.60;99.90;;;;;;5051611;28;19924;-67
2023/01/12 09:11:58;;;;;;;18.98;3.65;;;10.60;99.90;;;;;;5051916;28;20462;-65
2023/01/12 09:14:26;;;;;;;16.52;3.50;;;11.00;99.90;;;;;;5051647;28;20053;-65
2023/01/12 09:16:52;;;;;;;13.95;3.33;;;10.80;99.90;;;;;;5051308;28;20568;-64
2023/01/12 09:19:18;;;;;;;16.83;3.80;;;10.80;99.90;;;;;;5051543;28;20124;-65
2023/01/12 09:21:44;;;;;;;22.50;3.85;;;10.60;99.90;;;;;;5051266;28;20067;-65
2023/01/12 09:24:10;;;;;;;25.92;4.65;;;10.70;99.90;;;;;;5051163;28;20102;-65
2023/01/12 09:26:39;;;;;;;25.23;4.78;;;10.70;99.90;;;;;;5051453;28;20053;-67
2023/01/12 09:29:06;;;;;;;24.13;4.30;;;11.10;99.90;;;;;;5051389;28;20045;-65
2023/01/12 09:31:34;;;;;;;25.05;3.67;;;10.80;99.90;;;;;;5050381;28;20490;-66
2023/01/12 09:34:00;;;;;;;23.77;3.78;;;10.70;99.90;;;;;;5051335;28;20401;-67
2023/01/12 09:36:35;;;;;;;22.10;2.90;;;10.70;99.90;;;;;;5051365;28;20056;-69
2023/01/12 09:39:01;;;;;;;24.88;4.18;;;11.20;99.90;;;;;;5051110;28;20077;-66
2023/01/12 09:47:25;;;;;;;22.48;3.95;;;10.80;99.90;;;;;;5050464;28;20136;-68
2023/01/12 09:49:59;;;;;;;25.80;4.07;;;10.90;99.90;;;;;;5051261;28;20473;-67
2023/01/12 09:52:30;;;;;;;26.02;4.53;;;10.50;99.90;;;;;;5050997;28;20048;-65
2023/01/12 09:54:56;;;;;;;24.35;3.80;;;10.80;99.90;;;;;;5051230;28;20044;-66
2023/01/12 09:57:40;;;;;;;;;;;10.90;99.90;;;;;;5050237;28;20347;-66
2023/01/12 10:00:12;;;;;;;23.52;5.28;;;10.80;99.90;;;;;;5051126;28;20334;-65
2023/01/12 10:02:43;;;;;;;25.80;4.30;;;10.80;99.90;;;;;;5051216;28;20053;-68
2023/01/12 10:05:41;;;;;;;26.90;5.40;;;11.20;99.90;;;;;;5052639;28;20045;-65
2023/01/12 10:08:19;;;;;;;24.52;4.22;;;11.00;99.90;;;;;;5053459;28;20045;-66
2023/01/12 10:10:57;;;;;;;29.73;4.38;;;11.10;99.90;;;;;;5054906;28;20041;-64
2023/01/12 10:13:28;;;;;;;24.75;4.03;;;11.00;99.90;;;;;;5054615;28;20107;-66
2023/01/12 10:16:01;;;;;;;24.13;5.45;;;10.80;99.90;;;;;;5054632;28;20469;-65
2023/01/12 10:18:33;;;;;;;20.70;3.65;;;10.90;99.90;;;;;;5054556;28;20045;-67
2023/01/12 10:20:59;;;;;;;17.40;3.78;;;10.80;99.90;;;;;;5054487;28;20040;-66
2023/01/12 10:23:26;;;;;;;21.00;3.95;;;11.00;99.90;;;;;;5054056;28;20052;-65
2023/01/12 10:26:18;;;;;;;25.13;4.68;;;11.20;99.90;;;;;;5053126;28;20123;-66
2023/01/12 10:28:45;;;;;;;22.67;3.88;;;10.90;99.90;;;;;;5054360;28;20052;-66
2023/01/12 10:31:18;;;;;;;23.77;3.85;;;11.00;99.90;;;;;;5054171;28;20094;-67
2023/01/12 10:34:05;;;;;;;25.95;3.88;;;11.20;99.90;;;;;;5053967;28;20598;-68
2023/01/12 10:36:33;;;;;;;17.77;4.22;;;10.90;99.90;;;;;;5053558;28;20536;-66
2023/01/12 10:39:02;;;;;;;21.55;3.88;;;10.90;99.90;;;;;;5054069;28;20146;-65
2023/01/12 10:41:36;;;;;;;19.58;3.65;;;10.90;99.90;;;;;;5052844;28;20462;-65
2023/01/12 10:44:02;;;;;;;31.42;4.93;;;11.00;99.90;;;;;;5054031;28;20049;-65
2023/01/12 10:46:32;;;;;;;27.27;4.55;;;11.10;99.90;;;;;;5054001;28;20055;-65
2023/01/12 10:49:19;;;;;;;22.75;3.88;;;11.00;99.90;;;;;;5053878;28;20500;-65
2023/01/12 10:51:55;;;;;;;25.15;4.20;;;10.80;99.90;;;;;;5053784;28;20401;-65
2023/01/12 10:54:31;;;;;;;37.65;5.00;;;11.00;99.90;;;;;;5053894;28;20110;-67
2023/01/12 10:57:19;;;;;;;28.35;3.80;;;10.60;99.90;;;;;;5053807;28;20045;-66
2023/01/12 11:00:01;;;;;;;25.63;3.17;;;10.70;99.90;;;;;;5053802;28;20120;-65
2023/01/12 11:02:41;;;;;;;13.95;3.50;;;11.10;99.90;;;;;;5053758;28;20041;-67
2023/01/12 11:05:34;;;;;;;24.17;4.00;;;10.90;99.90;;;;;;5053541;28;20121;-64
2023/01/12 11:08:00;;;;;;;22.58;3.35;;;10.40;99.90;;;;;;5053959;28;20070;-64
2023/01/12 11:10:32;;;;;;;23.90;4.45;;;10.80;99.90;;;;;;5053639;28;20052;-67
2023/01/12 11:13:02;;;;;;;23.63;4.00;;;10.60;99.90;;;;;;5053600;28;20159;-66
2023/01/12 11:15:29;;;;;;;27.10;4.65;;;10.70;99.90;;;;;;5053090;28;20049;-66
2023/01/12 11:18:27;;;;;;;27.40;6.82;;;10.60;99.90;;;;;;5053435;28;20191;-66
2023/01/12 11:21:02;;;;;;;25.75;4.15;;;10.60;99.90;;;;;;5053182;28;20092;-66
2023/01/12 11:23:53;;;;;;;28.33;7.32;;;10.50;99.90;;;;;;5053038;28;20387;-68
2023/01/12 11:26:31;;;;;;;27.20;4.10;;;10.50;99.90;;;;;;5053352;28;20052;-67
2023/01/12 11:29:36;;;;;;;36.80;4.97;;;10.30;99.90;;;;;;5053171;28;20052;-66
2023/01/12 11:32:24;;;;;;;23.75;4.13;;;10.30;99.90;;;;;;5049600;28;20076;-65
2023/01/12 11:35:07;;;;;;;24.00;4.25;;;10.60;99.90;;;;;;5052439;28;20067;-67
2023/01/12 11:37:38;;;;;;;21.80;3.17;;;10.40;99.90;;;;;;5053070;28;20107;-69
2023/01/12 11:40:24;;;;;;;29.73;5.15;;;10.50;99.90;;;;;;5052013;28;20053;-65
2023/01/12 11:45:52;;;;;;;25.67;4.90;;;10.20;99.90;;;;;;5052846;28;20143;-68
2023/01/12 11:48:31;;;;;;;37.75;4.07;;;10.30;99.90;;;;;;5052833;28;20131;-69
2023/01/12 11:50:58;;;;;;;28.23;3.58;;;10.40;99.90;;;;;;5051472;28;20206;-69
2023/01/12 11:53:24;;;;;;;23.77;3.38;;;10.60;99.90;;;;;;5052720;28;20056;-69
2023/01/12 11:55:59;;;;;;;22.92;3.40;;;10.80;99.90;;;;;;5052698;28;20052;-66
2023/01/12 11:58:47;;;;;;;17.75;2.85;;;10.40;99.90;;;;;;5052665;28;20152;-67
2023/01/12 12:01:19;;;;;;;23.98;3.42;;;10.60;99.90;;;;;;5052571;28;20036;-67
2023/01/12 12:04:05;;;;;;;18.27;2.53;;;10.60;99.90;;;;;;5052234;28;20056;-68
2023/01/12 12:06:36;;;;;;;14.18;2.78;;;10.50;99.90;;;;;;5052511;28;20061;-69
2023/01/12 12:09:35;;;;;;;20.58;3.08;;;10.50;99.90;;;;;;5052416;28;20071;-68
2023/01/12 12:12:02;;;;;;;19.13;3.00;;;10.70;99.90;;;;;;5052470;28;20143;-68
2023/01/12 12:15:15;;;;;;;18.02;3.47;;;10.90;99.90;;;;;;5052313;28;20047;-67
2023/01/12 12:18:13;;;;;;;20.45;3.10;;;10.90;99.90;;;;;;5050775;28;20136;-67
2023/01/12 12:20:45;;;;;;;21.30;3.30;;;10.70;99.90;;;;;;5043350;28;20049;-68
2023/01/12 12:23:38;;;;;;;25.38;4.15;;;11.20;99.90;;;;;;5052095;28;20049;-69
2023/01/12 12:26:13;;;;;;;25.60;4.15;;;11.40;99.90;;;;;;5052088;28;20049;-67
2023/01/12 12:29:07;;;;;;;19.58;3.72;;;11.30;99.90;;;;;;5051453;28;20048;-69
2023/01/12 12:31:46;;;;;;;17.42;2.72;;;11.30;99.90;;;;;;5052077;28;20049;-67
2023/01/12 12:34:34;;;;;;;21.63;3.50;;;11.20;99.90;;;;;;5051733;28;20057;-71
2023/01/12 12:37:41;;;;;;;15.45;3.15;;;11.10;99.90;;;;;;5052228;28;20059;-68
2023/01/12 12:45:14;;;;;;;24.73;4.65;;;11.60;99.90;;;;;;5052036;28;20067;-69
2023/01/12 12:46:18;;;;;;;20.50;3.40;;;11.40;99.90;;;;;;5051936;28;20173;-69
2023/01/12 12:48:51;;;;;;;20.95;4.20;;;11.20;99.90;;;;;;5051600;28;20116;-68
2023/01/12 12:51:17;;;;;;;21.83;3.28;;;11.20;99.90;;;;;;5051830;28;20466;-68
2023/01/12 12:53:48;;;;;;;18.02;3.28;;;11.30;99.90;;;;;;5051813;28;20140;-69
2023/01/12 12:56:21;;;;;;;23.40;3.42;;;11.40;99.90;;;;;;5051988;28;20099;-69
2023/01/12 12:58:48;;;;;;;19.23;2.80;;;11.20;99.90;;;;;;5051877;28;20056;-68
2023/01/12 13:01:19;;;;;;;23.67;3.20;;;11.10;99.90;;;;;;5051695;28;20041;-70
2023/01/12 13:03:50;;;;;;;20.45;3.60;;;11.00;99.90;;;;;;5052010;28;20187;-66
2023/01/12 13:06:21;;;;;;;22.85;3.30;;;11.20;99.90;;;;;;5051759;28;20049;-68
2023/01/12 13:08:49;;;;;;;19.33;3.58;;;11.30;99.90;;;;;;5051746;28;20045;-66
2023/01/12 13:11:16;;;;;;;22.02;4.20;;;11.20;99.90;;;;;;5051625;28;20040;-70
2023/01/12 13:14:02;;;;;;;19.33;4.45;;;11.00;99.90;;;;;;5050552;28;20048;-69
2023/01/12 13:16:28;;;;;;;20.70;3.80;;;11.20;99.90;;;;;;5051341;28;20099;-70
2023/01/12 13:18:53;;;;;;;26.05;4.05;;;11.20;99.90;;;;;;5051513;28;20382;-71
2023/01/12 13:21:25;;;;;;;26.75;3.75;;;11.20;99.90;;;;;;5051485;28;20048;-71
2023/01/12 13:24:10;;;;;;;30.02;4.10;;;11.20;99.90;;;;;;5051514;28;20056;-69
2023/01/12 13:26:40;;;;;;;14.45;3.50;;;11.30;99.90;;;;;;5051660;28;20053;-69
2023/01/12 13:29:24;;;;;;;24.75;3.92;;;11.30;99.90;;;;;;5051373;28;20045;-69
2023/01/12 13:32:17;;;;;;;31.92;4.90;;;11.30;99.90;;;;;;5050105;28;20049;-69
2023/01/12 13:34:45;;;;;;;35.92;4.50;;;11.10;99.90;;;;;;5049671;28;20060;-71
2023/01/12 13:37:36;;;;;;;26.17;3.58;;;11.40;99.90;;;;;;5051636;28;20045;-69
2023/01/12 13:40:07;;;;;;;26.55;3.85;;;11.30;99.90;;;;;;5054274;28;20052;-70
2023/01/12 13:45:19;;;;;;;22.38;3.10;;;11.20;99.90;;;;;;5054935;28;20143;-68
2023/01/12 13:47:47;;;;;;;26.77;3.97;;;11.30;99.90;;;;;;5055060;28;20127;-70
2023/01/12 13:50:18;;;;;;;25.75;3.70;;;11.00;99.90;;;;;;5054938;28;20045;-68